Time;durP1;ratioP1;P1;durP2;ratioP2;P2;SDS_P1;SDS_P2;PMS_P1;PMS_P2;Temp;Humidity;BMP_temperature;BMP_pressure;BME280_temperature;BME280_humidity;BME280_pressure;Samples;Min_cycle;Max_cycle;Signal;HPM_P1;HPM_P2
2024/04/17 00:00:44;;;;;;;1.17;0.38;;;5.60;99.90;;;;;;5352613;26;20077;-79
2024/04/17 00:03:11;;;;;;;2.38;0.30;;;5.60;99.90;;;;;;5324109;26;20011;-79
2024/04/17 00:05:39;;;;;;;1.15;0.20;;;5.60;99.90;;;;;;5381580;26;20011;-79
2024/04/17 00:08:06;;;;;;;1.48;0.30;;;5.60;99.90;;;;;;5381793;26;20382;-80
2024/04/17 00:10:33;;;;;;;3.75;0.63;;;5.60;99.90;;;;;;5381729;26;20074;-80
2024/04/17 00:13:00;;;;;;;1.88;0.38;;;5.50;99.90;;;;;;5381631;26;20000;-80
2024/04/17 00:15:27;;;;;;;0.90;0.40;;;5.50;99.90;;;;;;5381414;26;20085;-80
2024/04/17 00:17:54;;;;;;;1.50;0.28;;;5.50;99.90;;;;;;5381480;26;20008;-79
2024/04/17 00:20:21;;;;;;;1.58;0.40;;;5.50;99.90;;;;;;5381436;26;20004;-80
2024/04/17 00:22:48;;;;;;;2.72;0.63;;;5.40;99.90;;;;;;5381384;26;20004;-80
2024/04/17 00:25:18;;;;;;;3.75;0.47;;;5.40;99.90;;;;;;5381113;26;20011;-80
2024/04/17 00:27:45;;;;;;;0.75;0.20;;;5.40;99.90;;;;;;5347007;26;19997;-79
2024/04/17 00:30:12;;;;;;;1.83;0.30;;;5.40;99.90;;;;;;5346339;26;20357;-81
2024/04/17 00:32:42;;;;;;;3.47;0.47;;;5.30;99.90;;;;;;5360905;26;20493;-80
2024/04/17 00:35:11;;;;;;;0.77;0.28;;;5.30;99.90;;;;;;5381292;26;20455;-78
2024/04/17 00:37:38;;;;;;;4.65;0.50;;;5.30;99.90;;;;;;5380952;26;20000;-81
2024/04/17 00:40:06;;;;;;;2.63;0.68;;;5.20;99.90;;;;;;5323960;26;20070;-81
2024/04/17 00:42:33;;;;;;;2.13;0.38;;;5.20;99.90;;;;;;5410308;26;20401;-79
2024/04/17 00:45:00;;;;;;;1.10;0.30;;;5.20;99.90;;;;;;5381509;26;20046;-80
2024/04/17 00:47:28;;;;;;;4.22;1.02;;;5.20;99.90;;;;;;5353457;26;20015;-79
2024/04/17 00:49:55;;;;;;;1.80;0.22;;;5.20;99.90;;;;;;5351934;26;20011;-80
2024/04/17 00:52:25;;;;;;;3.00;0.40;;;5.20;99.90;;;;;;5352578;26;20004;-80
2024/04/17 00:54:53;;;;;;;1.38;0.25;;;5.20;99.90;;;;;;5381232;26;20350;-79
2024/04/17 00:57:21;;;;;;;1.30;0.30;;;5.20;99.90;;;;;;5381263;26;20318;-79
2024/04/17 00:59:48;;;;;;;3.13;0.40;;;5.20;99.90;;;;;;5380882;26;20012;-79
2024/04/17 01:02:15;;;;;;;2.30;0.43;;;5.10;99.90;;;;;;5381156;26;20041;-79
2024/04/17 01:04:44;;;;;;;1.10;0.20;;;5.10;99.90;;;;;;5380734;26;20070;-80
2024/04/17 01:07:12;;;;;;;2.97;0.40;;;5.10;99.90;;;;;;5380366;26;20015;-81
2024/04/17 01:09:42;;;;;;;2.00;0.30;;;5.10;99.90;;;;;;5380519;26;20456;-79
2024/04/17 01:12:12;;;;;;;2.13;0.30;;;5.10;99.90;;;;;;5353187;26;20069;-79
2024/04/17 01:14:39;;;;;;;1.58;0.50;;;5.10;99.90;;;;;;5382239;26;20008;-79
2024/04/17 01:17:06;;;;;;;0.95;0.40;;;5.10;99.90;;;;;;5351784;26;20012;-79
2024/04/17 01:19:33;;;;;;;2.17;0.30;;;5.00;99.90;;;;;;5351658;26;20345;-79
2024/04/17 01:22:00;;;;;;;3.90;0.47;;;5.00;99.90;;;;;;5380675;26;20007;-79
2024/04/17 01:24:28;;;;;;;1.67;0.60;;;5.00;99.90;;;;;;5351943;26;20325;-79
2024/04/17 01:26:55;;;;;;;2.17;0.55;;;5.00;99.90;;;;;;5380287;26;20008;-78
2024/04/17 01:29:22;;;;;;;2.65;0.63;;;4.90;99.90;;;;;;5351442;26;20011;-79
2024/04/17 01:31:49;;;;;;;1.35;0.32;;;4.90;99.90;;;;;;5380280;26;20028;-80
2024/04/17 01:34:16;;;;;;;2.20;0.45;;;4.90;99.90;;;;;;5351452;26;19996;-79
2024/04/17 01:36:43;;;;;;;1.92;0.70;;;4.90;99.90;;;;;;5380388;26;20000;-80
2024/04/17 01:39:10;;;;;;;1.55;0.30;;;4.90;99.90;;;;;;5322686;26;20028;-80
2024/04/17 01:41:37;;;;;;;2.60;0.43;;;4.90;99.90;;;;;;5345755;26;20001;-80
2024/04/17 01:44:05;;;;;;;1.60;0.35;;;4.90;99.90;;;;;;5317477;26;20046;-80
2024/04/17 01:46:33;;;;;;;2.63;0.30;;;4.90;99.90;;;;;;5335829;26;20011;-80
2024/04/17 01:49:00;;;;;;;1.77;0.35;;;4.90;99.90;;;;;;5379805;26;20015;-80
2024/04/17 01:51:27;;;;;;;1.67;0.40;;;4.80;99.90;;;;;;5345069;26;20041;-80
2024/04/17 01:53:54;;;;;;;1.33;0.30;;;4.80;99.90;;;;;;5314528;26;20333;-80
2024/04/17 01:56:21;;;;;;;1.65;0.38;;;4.80;99.90;;;;;;5380076;26;20070;-80
2024/04/17 01:58:48;;;;;;;1.38;0.38;;;4.80;99.90;;;;;;5351260;26;20001;-79
2024/04/17 02:01:16;;;;;;;2.95;0.70;;;4.80;99.90;;;;;;5380275;26;20021;-79
2024/04/17 02:03:44;;;;;;;5.45;0.73;;;4.80;99.90;;;;;;5380017;26;20006;-79
2024/04/17 02:06:11;;;;;;;3.00;0.30;;;4.80;99.90;;;;;;5379945;26;20005;-79
2024/04/17 02:08:38;;;;;;;1.50;0.30;;;4.80;99.90;;;;;;5379835;26;20008;-80
2024/04/17 02:11:05;;;;;;;2.63;0.40;;;4.90;99.90;;;;;;5380074;26;20004;-80
2024/04/17 02:13:33;;;;;;;0.85;0.30;;;4.90;99.90;;;;;;5379954;26;20001;-80
2024/04/17 02:16:04;;;;;;;1.13;0.30;;;4.90;99.90;;;;;;5379719;26;20016;-78
2024/04/17 02:18:31;;;;;;;1.63;0.50;;;4.90;99.90;;;;;;5379728;26;20365;-78
2024/04/17 02:21:01;;;;;;;1.13;0.30;;;5.00;99.90;;;;;;5350610;26;20008;-78
2024/04/17 02:23:28;;;;;;;4.90;0.57;;;5.00;99.90;;;;;;5351356;26;20000;-79
2024/04/17 02:25:56;;;;;;;3.53;0.52;;;5.00;99.90;;;;;;5350389;26;20030;-79
2024/04/17 02:28:23;;;;;;;1.65;0.45;;;5.10;99.90;;;;;;5379300;26;20012;-79
2024/04/17 02:30:50;;;;;;;5.47;0.77;;;5.20;99.90;;;;;;5350573;26;20073;-79
2024/04/17 02:33:17;;;;;;;2.00;0.60;;;5.30;99.90;;;;;;5379533;26;20008;-79
2024/04/17 02:35:45;;;;;;;4.53;1.00;;;5.40;99.90;;;;;;5380798;26;20004;-78
2024/04/17 02:38:12;;;;;;;6.15;0.93;;;5.40;99.90;;;;;;5379299;26;20008;-78
2024/04/17 02:40:40;;;;;;;4.55;0.95;;;5.50;99.90;;;;;;5371942;26;19997;-78
2024/04/17 02:43:07;;;;;;;4.03;0.80;;;5.60;99.90;;;;;;5363100;26;20023;-79
2024/04/17 02:45:42;;;;;;;5.93;1.05;;;5.60;99.90;;;;;;5378923;26;20008;-79
2024/04/17 02:48:10;;;;;;;2.85;0.80;;;5.70;99.90;;;;;;5345519;26;20324;-81
2024/04/17 02:50:41;;;;;;;3.78;1.00;;;5.70;99.90;;;;;;5319617;26;20012;-79
2024/04/17 02:53:08;;;;;;;6.60;1.38;;;5.80;99.90;;;;;;5378878;26;20000;-79
2024/04/17 02:55:37;;;;;;;2.28;0.90;;;5.80;99.90;;;;;;5350803;26;20077;-78
2024/04/17 02:58:08;;;;;;;6.82;1.10;;;5.80;99.90;;;;;;5380682;26;20065;-79
2024/04/17 03:00:37;;;;;;;4.45;1.38;;;5.80;99.90;;;;;;5378892;26;20001;-79
2024/04/17 03:03:04;;;;;;;4.63;1.33;;;5.80;99.90;;;;;;5381444;26;20012;-79
2024/04/17 03:05:35;;;;;;;4.15;1.23;;;5.80;99.90;;;;;;5353493;26;20000;-79
2024/04/17 03:08:03;;;;;;;3.75;0.85;;;5.90;99.90;;;;;;5382384;26;20004;-78
2024/04/17 03:10:30;;;;;;;5.93;1.17;;;5.90;99.90;;;;;;5382633;26;20006;-78
2024/04/17 03:12:57;;;;;;;5.70;1.00;;;5.90;99.90;;;;;;5382348;26;20008;-78
2024/04/17 03:15:24;;;;;;;5.18;0.93;;;5.90;99.90;;;;;;5382484;26;20000;-78
2024/04/17 03:17:52;;;;;;;3.60;1.20;;;5.90;99.90;;;;;;5382403;26;20000;-78
2024/04/17 03:20:19;;;;;;;3.20;0.73;;;5.90;99.90;;;;;;5390576;26;20016;-78
2024/04/17 03:22:46;;;;;;;5.57;1.15;;;6.00;99.90;;;;;;5411327;26;20000;-79
2024/04/17 03:25:13;;;;;;;4.30;0.90;;;6.00;99.90;;;;;;5347659;26;20001;-79
2024/04/17 03:27:40;;;;;;;2.88;0.82;;;6.00;99.90;;;;;;5370706;26;20046;-79
2024/04/17 03:30:08;;;;;;;2.92;0.73;;;6.00;99.90;;;;;;5349919;26;20001;-79
2024/04/17 03:32:37;;;;;;;5.28;0.77;;;6.00;99.90;;;;;;5382666;26;20040;-80
2024/04/17 03:35:08;;;;;;;2.85;0.70;;;6.00;99.90;;;;;;5382130;26;20004;-80
2024/04/17 03:37:42;;;;;;;6.13;1.05;;;6.10;99.90;;;;;;5382113;26;20008;-79
2024/04/17 03:40:12;;;;;;;3.25;0.50;;;6.10;99.90;;;;;;5382676;26;20000;-79
2024/04/17 03:42:42;;;;;;;1.55;0.50;;;6.10;99.90;;;;;;5382004;26;20073;-80
2024/04/17 03:45:12;;;;;;;1.20;0.47;;;6.20;99.90;;;;;;5382057;26;20032;-79
2024/04/17 03:47:41;;;;;;;1.90;0.57;;;6.20;99.90;;;;;;5325965;26;20000;-80
2024/04/17 03:50:08;;;;;;;2.78;0.50;;;6.20;99.90;;;;;;5381267;26;19997;-79
2024/04/17 03:52:37;;;;;;;3.72;0.82;;;6.20;99.90;;;;;;5347076;26;20468;-79
2024/04/17 03:55:04;;;;;;;2.95;0.80;;;6.20;99.90;;;;;;5352990;26;20000;-79
2024/04/17 03:57:32;;;;;;;2.67;0.60;;;6.20;99.90;;;;;;5381828;26;20521;-79
2024/04/17 03:59:59;;;;;;;3.90;0.70;;;6.10;99.90;;;;;;5381664;26;19996;-79
2024/04/17 04:02:26;;;;;;;4.20;0.70;;;6.00;99.90;;;;;;5381981;26;20014;-79
2024/04/17 04:04:53;;;;;;;2.10;0.60;;;6.00;99.90;;;;;;5381755;26;20066;-78
2024/04/17 04:07:20;;;;;;;3.60;0.50;;;6.00;99.90;;;;;;5324007;26;20008;-79
2024/04/17 04:09:49;;;;;;;1.98;0.50;;;6.00;99.90;;;;;;5357410;26;19999;-79
2024/04/17 04:12:16;;;;;;;1.55;0.40;;;6.00;99.90;;;;;;5381401;26;20012;-79
2024/04/17 04:14:43;;;;;;;2.20;0.70;;;6.00;99.90;;;;;;5352843;26;19996;-80
2024/04/17 04:17:14;;;;;;;2.85;1.15;;;6.00;99.90;;;;;;5382074;26;20459;-82
2024/04/17 04:19:43;;;;;;;5.30;1.50;;;5.90;99.90;;;;;;5323821;26;20441;-85
2024/04/17 04:22:10;;;;;;;2.90;0.80;;;5.90;99.90;;;;;;5375408;26;20457;-85
2024/04/17 04:24:37;;;;;;;2.97;0.90;;;5.90;99.90;;;;;;5321505;26;20012;-84
2024/04/17 04:27:04;;;;;;;2.42;0.80;;;5.80;99.90;;;;;;5381401;26;20012;-83
2024/04/17 04:29:32;;;;;;;1.55;0.50;;;5.80;99.90;;;;;;5352076;26;19996;-83
2024/04/17 04:31:59;;;;;;;3.88;0.50;;;5.80;99.90;;;;;;5381419;26;19996;-83
2024/04/17 04:34:26;;;;;;;1.38;0.60;;;5.80;99.90;;;;;;5380999;26;19996;-83
2024/04/17 04:36:53;;;;;;;1.52;0.60;;;5.90;99.90;;;;;;5351972;26;20004;-83
2024/04/17 04:39:20;;;;;;;1.40;0.70;;;5.80;99.90;;;;;;5381177;26;19996;-83
2024/04/17 04:41:47;;;;;;;2.53;0.55;;;5.80;99.90;;;;;;5381260;26;20000;-83
2024/04/17 04:44:16;;;;;;;2.65;0.60;;;5.90;99.90;;;;;;5381102;26;20065;-83
2024/04/17 04:46:43;;;;;;;4.90;0.68;;;5.90;99.90;;;;;;5352146;26;20046;-84
2024/04/17 04:49:10;;;;;;;3.10;0.80;;;5.90;99.90;;;;;;5346374;26;20021;-81
2024/04/17 04:51:37;;;;;;;2.80;0.60;;;5.90;99.90;;;;;;5375190;26;20074;-81
2024/04/17 04:54:04;;;;;;;1.58;0.50;;;6.00;99.90;;;;;;5344751;26;19997;-82
2024/04/17 04:56:31;;;;;;;2.10;0.60;;;6.00;99.90;;;;;;5361190;26;20001;-83
2024/04/17 04:58:58;;;;;;;1.60;0.40;;;6.00;99.90;;;;;;5380934;26;20000;-82
2024/04/17 05:01:25;;;;;;;1.25;0.40;;;6.00;99.90;;;;;;5380306;26;20015;-81
2024/04/17 05:03:53;;;;;;;1.30;0.50;;;6.00;99.90;;;;;;5351699;26;20015;-82
2024/04/17 05:06:20;;;;;;;1.38;0.50;;;6.00;99.90;;;;;;5356259;26;20044;-81
2024/04/17 05:08:47;;;;;;;1.23;0.40;;;6.00;99.90;;;;;;5351252;26;20397;-82
2024/04/17 05:11:14;;;;;;;1.35;0.30;;;6.00;99.90;;;;;;5351275;26;20398;-82
2024/04/17 05:13:42;;;;;;;2.28;0.30;;;6.00;99.90;;;;;;5352162;26;19996;-82
2024/04/17 05:16:09;;;;;;;0.17;0.10;;;5.90;99.90;;;;;;5381673;26;20012;-90
2024/04/17 05:18:37;;;;;;;0.38;0.17;;;5.90;99.90;;;;;;5382118;26;20073;-91
2024/04/17 05:21:05;;;;;;;0.35;0.22;;;5.90;99.90;;;;;;5382473;26;20074;-91
2024/04/17 05:23:35;;;;;;;0.50;0.20;;;5.90;99.90;;;;;;5352927;26;20077;-90
2024/04/17 05:26:02;;;;;;;0.50;0.10;;;6.00;99.90;;;;;;5380352;26;20464;-90
2024/04/17 05:28:31;;;;;;;0.77;0.10;;;5.90;99.90;;;;;;5352543;26;20425;-89
2024/04/17 05:30:58;;;;;;;0.95;0.20;;;6.00;99.90;;;;;;5381527;26;20459;-90
2024/04/17 05:33:26;;;;;;;0.65;0.20;;;6.00;99.90;;;;;;5382361;26;20456;-90
2024/04/17 05:35:53;;;;;;;0.60;0.20;;;6.00;99.90;;;;;;5381847;26;20050;-92
2024/04/17 05:38:20;;;;;;;0.20;0.10;;;6.00;99.90;;;;;;5352588;26;20025;-92
2024/04/17 05:40:48;;;;;;;0.70;0.20;;;6.00;99.90;;;;;;5318389;26;20400;-92
2024/04/17 05:43:16;;;;;;;0.20;0.10;;;6.00;99.90;;;;;;5376200;26;20015;-89
2024/04/17 05:45:46;;;;;;;2.72;0.10;;;6.00;99.90;;;;;;5405865;26;19996;-91
2024/04/17 05:48:14;;;;;;;0.73;0.10;;;6.00;99.90;;;;;;5381481;26;20081;-90
2024/04/17 05:50:41;;;;;;;0.43;0.20;;;5.90;99.90;;;;;;5381850;26;20010;-91
2024/04/17 05:53:08;;;;;;;0.70;0.32;;;5.90;99.90;;;;;;5381442;26;20000;-91
2024/04/17 05:55:40;;;;;;;0.75;0.30;;;5.90;99.90;;;;;;5381337;26;20004;-92
2024/04/17 05:58:07;;;;;;;0.70;0.10;;;5.90;99.90;;;;;;5381702;26;20012;-89
2024/04/17 06:00:38;;;;;;;0.77;0.20;;;5.80;99.90;;;;;;5382837;26;20016;-90
2024/04/17 06:03:06;;;;;;;0.73;0.10;;;5.80;99.90;;;;;;5381575;26;20007;-90
2024/04/17 06:05:33;;;;;;;0.30;0.10;;;5.90;99.90;;;;;;5352333;26;20443;-91
2024/04/17 06:08:03;;;;;;;0.38;0.10;;;5.90;99.90;;;;;;5346126;26;20024;-91
2024/04/17 06:10:30;;;;;;;0.68;0.20;;;6.00;99.90;;;;;;5380735;26;20028;-92
2024/04/17 06:12:57;;;;;;;0.63;0.20;;;6.00;99.90;;;;;;5352532;26;20008;-92
2024/04/17 06:15:25;;;;;;;2.20;0.30;;;6.10;99.90;;;;;;5317821;26;19997;-91
2024/04/17 06:17:52;;;;;;;0.55;0.10;;;6.00;99.90;;;;;;5322479;26;20005;-90
2024/04/17 06:20:19;;;;;;;0.93;0.20;;;6.10;99.90;;;;;;5374637;26;20015;-91
2024/04/17 06:22:47;;;;;;;0.20;0.10;;;6.20;99.90;;;;;;5340268;26;20001;-90
2024/04/17 06:25:14;;;;;;;0.65;0.10;;;6.40;99.90;;;;;;5351874;26;20007;-90
2024/04/17 06:27:41;;;;;;;0.90;0.10;;;6.40;99.90;;;;;;5380470;26;20004;-91
2024/04/17 06:30:09;;;;;;;0.98;0.10;;;6.40;99.90;;;;;;5380738;26;20004;-90
2024/04/17 06:32:38;;;;;;;0.15;0.10;;;6.40;99.90;;;;;;5353098;26;20011;-90
2024/04/17 06:35:06;;;;;;;0.82;0.10;;;6.40;99.90;;;;;;5351773;26;20004;-90
2024/04/17 06:37:33;;;;;;;2.10;0.10;;;6.40;99.90;;;;;;5383651;26;20005;-90
2024/04/17 06:40:00;;;;;;;0.80;0.10;;;6.30;99.90;;;;;;5383972;26;20008;-92
2024/04/17 06:42:30;;;;;;;1.60;0.20;;;6.40;99.90;;;;;;5355339;26;20004;-91
2024/04/17 06:44:58;;;;;;;0.85;0.10;;;6.30;99.90;;;;;;5383725;26;20003;-91
2024/04/17 06:47:25;;;;;;;1.25;0.20;;;6.30;99.90;;;;;;5384444;26;20077;-91
2024/04/17 06:49:53;;;;;;;1.08;0.15;;;6.30;99.90;;;;;;5360844;26;20033;-91
2024/04/17 06:52:20;;;;;;;0.52;0.15;;;6.30;99.90;;;;;;5350206;26;20404;-90
2024/04/17 06:54:47;;;;;;;1.85;0.17;;;6.20;99.90;;;;;;5383858;26;20444;-90
2024/04/17 06:57:14;;;;;;;1.80;0.20;;;6.20;99.90;;;;;;5328046;26;20410;-90
2024/04/17 06:59:41;;;;;;;0.65;0.17;;;6.20;99.90;;;;;;5385641;26;20004;-88
2024/04/17 07:02:10;;;;;;;0.20;0.10;;;6.20;99.90;;;;;;5351158;26;20052;-88
2024/04/17 07:04:37;;;;;;;0.28;0.10;;;6.30;99.90;;;;;;5326266;26;20004;-89
2024/04/17 07:07:07;;;;;;;0.75;0.10;;;6.40;99.90;;;;;;5369617;26;20004;-89
2024/04/17 07:09:34;;;;;;;0.73;0.10;;;6.50;99.90;;;;;;5383288;26;20019;-89
2024/04/17 07:12:04;;;;;;;0.75;0.10;;;6.70;99.90;;;;;;5354748;26;20004;-90
2024/04/17 07:14:50;;;;;;;0.88;0.10;;;6.70;99.90;;;;;;5327365;26;19996;-91
2024/04/17 07:17:18;;;;;;;0.40;0.20;;;6.80;99.90;;;;;;5381063;26;20004;-86
2024/04/17 07:19:46;;;;;;;0.40;0.10;;;6.90;99.90;;;;;;5382278;26;20020;-88
2024/04/17 07:22:13;;;;;;;0.38;0.10;;;7.00;99.90;;;;;;5382357;26;20018;-89
2024/04/17 07:24:40;;;;;;;0.00;0.00;;;7.20;99.90;;;;;;5382329;26;20081;-88
2024/04/17 07:27:07;;;;;;;0.60;0.10;;;7.30;99.90;;;;;;5353797;26;20012;-89
2024/04/17 07:29:36;;;;;;;0.75;0.43;;;7.40;99.90;;;;;;5354332;26;19999;-89
2024/04/17 07:32:03;;;;;;;1.45;0.10;;;7.50;99.90;;;;;;5354231;26;20007;-89
2024/04/17 07:34:31;;;;;;;0.22;0.10;;;7.50;99.90;;;;;;5383411;26;20461;-89
2024/04/17 07:36:58;;;;;;;3.17;0.35;;;7.50;99.90;;;;;;5383187;26;20000;-88
2024/04/17 07:39:25;;;;;;;1.52;0.20;;;7.60;99.90;;;;;;5325324;26;20069;-87
2024/04/17 07:41:55;;;;;;;2.80;0.30;;;7.60;99.90;;;;;;5353417;26;20000;-86
2024/04/17 07:44:22;;;;;;;1.13;0.20;;;7.70;99.90;;;;;;5383871;26;20012;-88
2024/04/17 07:46:49;;;;;;;0.52;0.10;;;7.70;99.90;;;;;;5382002;26;20005;-87
2024/04/17 07:49:17;;;;;;;0.50;0.17;;;7.80;99.90;;;;;;5353097;26;19996;-89
2024/04/17 07:51:44;;;;;;;2.25;0.22;;;7.80;99.90;;;;;;5354323;26;20032;-90
2024/04/17 07:54:11;;;;;;;1.10;0.30;;;7.80;99.90;;;;;;5319319;26;20485;-86
2024/04/17 07:56:38;;;;;;;1.02;0.20;;;7.80;99.90;;;;;;5366325;26;20004;-90
2024/04/17 07:59:09;;;;;;;1.33;0.30;;;7.90;99.90;;;;;;5354214;26;20402;-88
2024/04/17 08:01:38;;;;;;;1.55;0.30;;;8.00;99.90;;;;;;5335316;26;20011;-89
2024/04/17 08:04:05;;;;;;;1.63;0.40;;;8.20;99.90;;;;;;5319001;26;20015;-88
2024/04/17 08:06:33;;;;;;;1.23;0.25;;;8.40;99.90;;;;;;5348306;26;20459;-90
2024/04/17 08:09:00;;;;;;;2.42;0.20;;;8.60;99.90;;;;;;5336079;26;20330;-87
2024/04/17 08:11:34;;;;;;;2.38;0.30;;;8.70;99.90;;;;;;5357244;26;20000;-88
2024/04/17 08:14:04;;;;;;;1.08;0.30;;;8.80;99.90;;;;;;5329174;26;20177;-89
2024/04/17 08:16:32;;;;;;;2.90;0.43;;;8.90;99.90;;;;;;5411121;26;20005;-88
2024/04/17 08:19:00;;;;;;;2.17;0.30;;;9.00;99.90;;;;;;5347505;26;20043;-90
2024/04/17 08:21:28;;;;;;;0.88;0.30;;;9.10;99.90;;;;;;5347337;26;20001;-90
2024/04/17 08:23:59;;;;;;;1.27;0.20;;;9.20;99.90;;;;;;5348475;26;20001;-88
2024/04/17 08:26:26;;;;;;;1.55;0.55;;;9.20;99.90;;;;;;5346655;26;20001;-88
2024/04/17 08:28:53;;;;;;;2.08;0.30;;;9.10;99.90;;;;;;5323148;26;20073;-88
2024/04/17 08:31:23;;;;;;;5.25;0.68;;;9.00;99.90;;;;;;5381870;26;20001;-86
2024/04/17 08:33:50;;;;;;;3.05;0.70;;;8.80;99.90;;;;;;5325159;26;20007;-88
2024/04/17 08:36:17;;;;;;;4.78;0.82;;;8.70;99.90;;;;;;5381701;26;20004;-89
2024/04/17 08:38:44;;;;;;;3.00;0.40;;;8.60;99.90;;;;;;5353278;26;20000;-88
2024/04/17 08:41:12;;;;;;;3.65;1.20;;;8.70;99.90;;;;;;5381835;26;20032;-89
2024/04/17 08:43:43;;;;;;;2.05;0.40;;;8.80;99.90;;;;;;5353213;26;20011;-89
2024/04/17 08:46:12;;;;;;;3.83;0.43;;;8.80;99.90;;;;;;5375564;26;20016;-87
2024/04/17 08:48:42;;;;;;;2.38;0.47;;;8.90;99.90;;;;;;5344853;26;20254;-89
2024/04/17 08:51:15;;;;;;;2.05;0.50;;;9.10;99.90;;;;;;5317820;26;20005;-88
2024/04/17 08:53:43;;;;;;;3.67;0.47;;;9.40;99.90;;;;;;5370516;26;20456;-88
2024/04/17 08:56:13;;;;;;;2.45;0.30;;;9.50;99.90;;;;;;5381763;26;20014;-88
2024/04/17 08:58:45;;;;;;;3.65;0.82;;;9.40;99.90;;;;;;5381227;26;20000;-88
2024/04/17 09:01:15;;;;;;;3.42;0.60;;;9.20;99.90;;;;;;5381625;26;20016;-90
2024/04/17 09:03:43;;;;;;;3.28;0.35;;;8.80;99.90;;;;;;5353048;26;20007;-90
2024/04/17 09:06:12;;;;;;;1.98;0.20;;;8.40;99.90;;;;;;5352615;26;20001;-89
2024/04/17 09:08:41;;;;;;;1.85;0.35;;;8.10;99.90;;;;;;5381577;26;20008;-90
2024/04/17 09:11:09;;;;;;;1.08;0.17;;;7.80;99.90;;;;;;5382370;26;20011;-90
2024/04/17 09:13:36;;;;;;;1.23;0.25;;;7.60;99.90;;;;;;5411312;26;20073;-90
2024/04/17 09:16:04;;;;;;;0.98;0.00;;;7.60;99.90;;;;;;5381918;26;20013;-88
2024/04/17 09:18:31;;;;;;;3.58;0.30;;;7.50;99.90;;;;;;5381556;26;20069;-89
2024/04/17 09:21:00;;;;;;;1.55;0.20;;;7.50;99.90;;;;;;5352520;26;20448;-89
2024/04/17 09:23:27;;;;;;;1.45;0.10;;;7.60;99.90;;;;;;5380966;26;20555;-90
2024/04/17 09:25:55;;;;;;;0.88;0.10;;;7.70;99.90;;;;;;5347094;26;20005;-89
2024/04/17 09:28:22;;;;;;;1.13;0.20;;;8.10;99.90;;;;;;5317740;26;20462;-91
2024/04/17 09:30:50;;;;;;;1.08;0.20;;;8.50;99.90;;;;;;5318194;26;20354;-91
2024/04/17 09:33:17;;;;;;;1.30;0.20;;;9.00;99.90;;;;;;5345790;26;20030;-90
2024/04/17 09:35:45;;;;;;;3.08;0.50;;;9.50;99.90;;;;;;5397734;26;20337;-91
2024/04/17 09:38:15;;;;;;;1.40;0.20;;;9.90;99.90;;;;;;5383324;26;19996;-90
2024/04/17 09:40:46;;;;;;;3.35;0.30;;;9.90;99.90;;;;;;5381840;26;20032;-91
2024/04/17 09:43:26;;;;;;;0.75;0.43;;;9.90;99.90;;;;;;5352594;26;20000;-91
2024/04/17 09:46:01;;;;;;;0.98;0.20;;;9.80;99.90;;;;;;5365364;26;20012;-89
2024/04/17 09:48:29;;;;;;;0.50;0.10;;;9.70;99.90;;;;;;5380906;26;20004;-89
2024/04/17 09:51:05;;;;;;;1.15;0.20;;;9.60;99.90;;;;;;5323785;26;20051;-89
2024/04/17 09:53:34;;;;;;;1.80;0.63;;;9.60;99.90;;;;;;5381290;26;20011;-90
2024/04/17 09:56:05;;;;;;;1.23;0.20;;;9.50;99.90;;;;;;5381202;26;20019;-89
2024/04/17 09:58:34;;;;;;;2.95;0.15;;;9.50;99.90;;;;;;5410486;26;20322;-90
2024/04/17 10:01:06;;;;;;;0.80;0.00;;;9.50;99.90;;;;;;5380952;26;20000;-89
2024/04/17 10:03:44;;;;;;;0.20;0.00;;;9.50;99.90;;;;;;5352697;26;20000;-90
2024/04/17 10:06:15;;;;;;;1.48;0.15;;;9.50;99.90;;;;;;5382978;26;20004;-88
2024/04/17 10:08:43;;;;;;;0.40;0.10;;;9.40;99.90;;;;;;5380758;26;20008;-90
2024/04/17 10:11:10;;;;;;;0.90;0.10;;;9.50;99.90;;;;;;5410962;26;20011;-89
2024/04/17 10:13:41;;;;;;;0.95;0.20;;;9.40;99.90;;;;;;5384629;26;20001;-89
2024/04/17 10:16:09;;;;;;;1.00;0.20;;;9.20;99.90;;;;;;5412943;26;20008;-90
2024/04/17 10:18:41;;;;;;;;;;;8.90;99.90;;;;;;5356732;26;20004;-91
2024/04/17 10:21:18;;;;;;;2.70;0.28;;;8.60;99.90;;;;;;5349399;26;19933;-89
2024/04/17 10:23:45;;;;;;;1.13;0.20;;;8.40;99.90;;;;;;5359073;26;20013;-89
2024/04/17 10:26:13;;;;;;;0.40;0.10;;;8.00;99.90;;;;;;5294528;26;20005;-90
2024/04/17 10:28:50;;;;;;;3.50;0.28;;;7.80;99.90;;;;;;5362927;26;20012;-91
2024/04/17 10:31:20;;;;;;;0.85;0.30;;;7.50;99.90;;;;;;5344842;26;20004;-93
2024/04/17 10:34:08;;;;;;;1.30;0.28;;;7.20;99.90;;;;;;5365412;26;20073;-93
2024/04/17 10:36:39;;;;;;;0.68;0.20;;;7.00;99.90;;;;;;5385137;26;20012;-94
2024/04/17 10:39:07;;;;;;;1.70;0.20;;;7.00;99.90;;;;;;5385395;26;20011;-91
2024/04/17 10:41:36;;;;;;;0.63;0.10;;;7.00;99.90;;;;;;5414142;26;20006;-92
2024/04/17 10:44:04;;;;;;;0.68;0.10;;;7.10;99.90;;;;;;5385105;26;20001;-91
2024/04/17 10:46:35;;;;;;;1.50;0.17;;;7.20;99.90;;;;;;5385807;26;19996;-91
2024/04/17 10:49:16;;;;;;;0.30;0.10;;;7.40;99.90;;;;;;5414413;26;20016;-91
2024/04/17 10:51:44;;;;;;;0.65;0.13;;;7.50;99.90;;;;;;5384686;26;20004;-91
2024/04/17 10:54:12;;;;;;;0.30;0.10;;;7.70;99.90;;;;;;5385043;26;20000;-91
2024/04/17 10:56:40;;;;;;;0.55;0.10;;;7.90;99.90;;;;;;5384525;26;20369;-91
2024/04/17 10:59:08;;;;;;;0.63;0.15;;;8.30;99.90;;;;;;5384530;26;20019;-92
2024/04/17 11:01:35;;;;;;;0.10;0.10;;;8.80;99.90;;;;;;5384796;26;20000;-91
2024/04/17 11:04:03;;;;;;;0.13;0.05;;;9.40;99.90;;;;;;5355848;26;20012;-91
2024/04/17 11:06:31;;;;;;;0.10;0.00;;;10.10;99.60;;;;;;5362571;26;20001;-93
2024/04/17 11:09:06;;;;;;;0.35;0.10;;;10.30;99.00;;;;;;5355969;26;20028;-92
2024/04/17 11:11:44;;;;;;;0.13;0.00;;;10.20;99.00;;;;;;5357384;26;20000;-93
2024/04/17 11:14:15;;;;;;;0.43;0.00;;;10.10;99.40;;;;;;5384393;26;20006;-94
2024/04/17 11:16:43;;;;;;;0.38;0.10;;;9.90;99.60;;;;;;5385245;26;20476;-93
2024/04/17 11:19:14;;;;;;;0.20;0.10;;;9.80;99.90;;;;;;5384834;26;20472;-94
2024/04/17 11:21:44;;;;;;;0.20;0.00;;;9.70;99.90;;;;;;5384880;26;20000;-89
2024/04/17 11:24:19;;;;;;;0.47;0.10;;;9.70;99.90;;;;;;5383698;26;20011;-94
2024/04/17 11:26:47;;;;;;;0.35;0.10;;;10.00;99.90;;;;;;5349938;26;20004;-90
2024/04/17 11:29:21;;;;;;;0.40;0.10;;;10.60;99.30;;;;;;5317304;26;20449;-91
2024/04/17 11:32:04;;;;;;;0.73;0.03;;;11.20;98.10;;;;;;5358062;26;19997;-91
2024/04/17 11:34:31;;;;;;;0.20;0.00;;;11.70;97.10;;;;;;5416567;26;20004;-91
2024/04/17 11:37:09;;;;;;;0.10;0.03;;;12.20;96.40;;;;;;5383500;26;20012;-89
2024/04/17 11:39:44;;;;;;;1.70;0.10;;;12.60;95.50;;;;;;5349394;26;20531;-91
2024/04/17 11:42:16;;;;;;;0.45;0.10;;;12.80;94.90;;;;;;5349696;26;20033;-91
2024/04/17 11:44:43;;;;;;;0.40;0.20;;;12.90;94.60;;;;;;5378079;26;20012;-91
2024/04/17 11:47:32;;;;;;;0.90;0.10;;;13.00;94.30;;;;;;5359884;26;19996;-95
2024/04/17 11:49:59;;;;;;;0.38;0.10;;;13.20;94.00;;;;;;5412411;26;20024;-95
2024/04/17 11:52:29;;;;;;;0.17;0.00;;;13.50;94.00;;;;;;5355745;26;20000;-94
2024/04/17 11:59:20;;;;;;;0.73;0.20;;;13.70;93.10;;;;;;5388398;26;20065;-93
2024/04/17 12:01:53;;;;;;;0.65;0.10;;;13.60;93.40;;;;;;5385545;26;20011;-91
2024/04/17 12:04:28;;;;;;;0.65;0.17;;;13.50;92.80;;;;;;5386460;26;20008;-91
2024/04/17 12:06:58;;;;;;;0.30;0.10;;;13.20;92.80;;;;;;5388026;26;20032;-92
2024/04/17 12:09:31;;;;;;;0.30;0.10;;;12.90;93.10;;;;;;5354145;26;20023;-89
2024/04/17 12:12:01;;;;;;;1.00;0.10;;;12.40;93.70;;;;;;5382156;26;20015;-89
2024/04/17 12:14:28;;;;;;;1.00;0.40;;;12.00;94.00;;;;;;5382897;26;20000;-89
2024/04/17 12:16:56;;;;;;;0.60;0.20;;;11.60;94.40;;;;;;5325087;26;20008;-89
2024/04/17 12:19:23;;;;;;;1.05;0.20;;;11.10;93.20;;;;;;5353313;26;20004;-87
2024/04/17 12:21:50;;;;;;;0.77;0.20;;;10.40;93.40;;;;;;5352660;26;20004;-85
2024/04/17 12:24:19;;;;;;;0.63;0.10;;;9.80;94.20;;;;;;5325242;26;20009;-86
2024/04/17 12:26:50;;;;;;;0.30;0.10;;;9.30;95.00;;;;;;5381525;26;20466;-86
2024/04/17 12:29:19;;;;;;;0.70;0.30;;;8.90;95.20;;;;;;5381785;26;20011;-83
2024/04/17 12:31:47;;;;;;;3.72;0.30;;;8.30;95.50;;;;;;5381319;26;20044;-83
2024/04/17 12:34:14;;;;;;;2.05;0.20;;;8.00;96.00;;;;;;5351934;26;20012;-84
2024/04/17 12:36:42;;;;;;;0.73;0.28;;;7.70;96.60;;;;;;5312022;26;20011;-84
2024/04/17 12:39:12;;;;;;;1.20;0.20;;;7.40;96.80;;;;;;5380837;26;20398;-84
2024/04/17 12:41:43;;;;;;;1.38;0.55;;;7.10;97.20;;;;;;5351822;26;20487;-83
2024/04/17 12:44:10;;;;;;;0.22;0.10;;;6.80;97.40;;;;;;5382636;26;20000;-83
2024/04/17 12:46:37;;;;;;;0.73;0.25;;;6.50;98.00;;;;;;5352187;26;20385;-83
2024/04/17 12:49:05;;;;;;;0.35;0.10;;;6.40;98.80;;;;;;5351623;26;20463;-84
2024/04/17 12:51:32;;;;;;;0.10;0.10;;;6.30;98.90;;;;;;5380831;26;20456;-86
2024/04/17 12:54:02;;;;;;;1.45;0.20;;;6.20;99.20;;;;;;5380990;26;19996;-88
2024/04/17 12:56:29;;;;;;;0.22;0.17;;;6.10;99.50;;;;;;5351857;26;19996;-87
2024/04/17 12:58:56;;;;;;;0.95;0.20;;;6.10;99.80;;;;;;5381489;26;20046;-85
2024/04/17 13:01:24;;;;;;;0.57;0.17;;;6.00;99.90;;;;;;5409873;26;20432;-86
2024/04/17 13:03:51;;;;;;;0.20;0.10;;;5.90;99.90;;;;;;5410759;26;20016;-87
2024/04/17 13:06:18;;;;;;;0.85;0.10;;;5.90;99.90;;;;;;5345964;26;20016;-87